18:41
Airports
History
Links
Donate
Help keep this website running!
PayPal
Bitcoin
Information on this page is community maintained and may be outdated or inaccurate and is intended for reference only or PC simulator navigating.
Always use approved charts for navigating.
LEMO
MORON AB
MORON AB (LEMO)
Arahal, Andalucía, Spain (41600)
(C)
Lat/Lng:37° 10' 29.6" N / 5° 36' 57.66" W
37.17489 / -5.616018
Elevation:285'ft 87mMSL
ID / ICAO:LEMO
Runways:1
Longest:(02-20) 3,604.9m 11,827ft Asphalt
Controlled:Yes
Distance To
Airport ID:
Airport Radio Frequencies
Tower: 122.1, 139.3
Approach: 120, 120.8, 128.5
Nearby VORs <50NM
Nearby NDBs
METARUpdated 07-20-17 18:00 GMT
Altimeter: 29.88
Visibility: 6.2 statute miles
Wind: 14 knots (250°)
Temp: 27°c 81°f
Humidity: 42.0%

METAR: LEMO 201800Z 25014KT 210V290 CAVOK 27/13 Q1012 NOSIG

(Powered by phpweather)
Runway 02 / 20
Dimensions:3604.9 x 61m 11827' x 200'ft
Surface:Asphalt
Edge Lights:High intensity
Runway 02 [A]Runway 20 [B]
Heading:019°TH 199°TH
Lat:
Lng:
37° 9' 34.73"N
5° 37' 22.4"W
37° 11' 24.48"N
5° 36' 32.93"W
ALS:MALSMALS
TDZ:Yes, lighted
User Notes and Comments
Google Map
Nearby Airports
(C) Sevilla 22.7 NM
LEZL (WX) NW 317°
(C) TABLADA 25.1 NM
LE85 WNW 299°
(C) Jerez 38.5 NM
LEJR (WX) SW 219°
(C) Rota Ns 54.6 NM
LERT (WX) SW 227°
(C) Cordoba 62.4 NM
LEBA (WX) NE 42°
(C) Malaga 70.7 NM
LEMG (WX) ESE 119°
(C) LXGB Gibraltar 72.3 NM
LXGB (WX) SSE 168°
VFR Chart
Flight Planning at SkyVector.com